createdAt,value
2024-02-02T00:03:17.450Z,41.51
2024-02-02T00:03:49.569Z,41.41
2024-02-02T00:06:00.420Z,41.61
2024-02-02T00:06:32.480Z,41.51
2024-02-02T00:07:22.090Z,41.51
2024-02-02T00:07:54.070Z,41.53
2024-02-02T00:08:26.082Z,41.61
2024-02-02T00:08:58.094Z,41.63
2024-02-02T00:09:30.629Z,41.63
2024-02-02T00:10:46.178Z,41.63
2024-02-02T00:11:18.498Z,41.63
2024-02-02T00:11:50.583Z,41.63
2024-02-02T00:12:23.847Z,41.53
2024-02-02T00:13:01.867Z,41.73
2024-02-02T00:13:53.485Z,41.63
2024-02-02T00:14:32.206Z,41.63
2024-02-02T00:15:10.778Z,41.63
2024-02-02T00:16:14.087Z,41.63
2024-02-02T00:16:46.145Z,41.63
2024-02-02T00:17:42.865Z,41.53
2024-02-02T00:18:40.206Z,41.53
2024-02-02T00:19:12.381Z,41.63
2024-02-02T00:19:44.479Z,41.51
2024-02-02T00:20:16.531Z,41.51
2024-02-02T00:20:48.641Z,41.53
2024-02-02T00:21:40.189Z,41.63
2024-02-02T00:22:12.210Z,41.63
2024-02-02T00:22:44.233Z,41.63
2024-02-02T00:23:16.260Z,41.73
2024-02-02T00:23:48.286Z,41.63
2024-02-02T00:24:39.626Z,41.63
2024-02-02T00:25:30.861Z,41.63
2024-02-02T00:26:27.532Z,41.53
2024-02-02T00:26:59.914Z,41.63
2024-02-02T00:27:38.094Z,41.63
2024-02-02T00:28:16.124Z,41.63
2024-02-02T00:28:48.114Z,41.63
2024-02-02T00:29:26.167Z,41.73
2024-02-02T00:29:58.183Z,41.83
2024-02-02T00:30:30.245Z,41.73
2024-02-02T00:31:08.924Z,41.73
2024-02-02T00:31:41.880Z,41.63
2024-02-02T00:32:13.892Z,41.83
2024-02-02T00:33:29.393Z,41.73
2024-02-02T00:34:07.636Z,41.63
2024-02-02T00:34:40.514Z,41.63
2024-02-02T00:35:12.707Z,41.73
2024-02-02T00:35:45.028Z,41.73
2024-02-02T00:37:50.737Z,41.63
2024-02-02T00:38:22.746Z,41.63
2024-02-02T00:38:54.764Z,41.73
2024-02-02T00:39:26.881Z,41.63
2024-02-02T00:39:59.173Z,41.63
2024-02-02T00:40:37.247Z,41.63
2024-02-02T00:41:09.240Z,41.63
2024-02-02T00:41:41.252Z,41.63
2024-02-02T00:42:13.885Z,41.63
2024-02-02T00:42:45.885Z,41.63
2024-02-02T00:43:17.881Z,41.63
2024-02-02T00:43:49.903Z,41.53
2024-02-02T00:44:22.675Z,41.53
2024-02-02T00:45:27.257Z,41.63
2024-02-02T00:45:59.547Z,41.63
2024-02-02T00:46:57.524Z,41.73
2024-02-02T00:47:29.538Z,41.73
2024-02-02T00:48:02.663Z,41.83
2024-02-02T00:48:35.835Z,41.83
2024-02-02T00:49:08.066Z,41.83
2024-02-02T00:49:40.136Z,41.73
2024-02-02T00:50:12.895Z,41.73
2024-02-02T00:50:44.954Z,41.63
2024-02-02T00:51:17.011Z,41.73
2024-02-02T00:51:49.575Z,41.63
2024-02-02T00:52:21.618Z,41.63
2024-02-02T00:52:53.927Z,41.63
2024-02-02T00:53:27.140Z,41.51
2024-02-02T00:53:59.858Z,41.53
2024-02-02T00:54:32.955Z,41.63
2024-02-02T00:55:05.545Z,41.63
2024-02-02T00:55:38.340Z,41.63
2024-02-02T00:56:29.034Z,41.63
2024-02-02T00:57:01.071Z,41.63
2024-02-02T00:57:34.135Z,41.53
2024-02-02T00:58:06.770Z,41.53
2024-02-02T00:58:38.788Z,41.61
2024-02-02T00:59:10.806Z,41.51
2024-02-02T00:59:42.845Z,41.51
2024-02-02T01:00:14.869Z,41.51
2024-02-02T01:00:46.986Z,41.51
2024-02-02T01:01:19.476Z,41.63
2024-02-02T01:01:52.734Z,41.63
2024-02-02T01:02:30.797Z,41.61
2024-02-02T01:03:02.833Z,41.63
2024-02-02T01:03:35.081Z,41.63
2024-02-02T01:04:07.206Z,41.61
2024-02-02T01:04:39.962Z,41.51
2024-02-02T01:05:11.960Z,41.51
2024-02-02T01:05:44.105Z,41.51
2024-02-02T01:06:16.846Z,41.53
2024-02-02T01:06:49.460Z,41.51
2024-02-02T01:07:21.469Z,41.43
2024-02-02T01:07:54.061Z,41.63
2024-02-02T01:08:26.388Z,41.63
2024-02-02T01:08:58.429Z,41.73
2024-02-02T01:09:36.479Z,41.63
2024-02-02T01:10:09.068Z,41.63
2024-02-02T01:10:41.668Z,41.63
2024-02-02T01:11:13.704Z,41.63
2024-02-02T01:11:45.740Z,41.73
2024-02-02T01:13:03.640Z,41.63
2024-02-02T01:13:36.628Z,41.53
2024-02-02T01:14:09.224Z,41.51
2024-02-02T01:14:41.234Z,41.63
2024-02-02T01:15:31.992Z,41.73
2024-02-02T01:16:04.015Z,41.73
2024-02-02T01:16:36.680Z,41.73
2024-02-02T01:17:08.699Z,41.73
2024-02-02T01:17:41.366Z,41.73
2024-02-02T01:18:13.403Z,41.73
2024-02-02T01:19:04.861Z,41.63
2024-02-02T01:19:43.025Z,41.53
2024-02-02T01:20:15.456Z,41.53
2024-02-02T01:20:53.495Z,41.63
2024-02-02T01:21:25.538Z,41.63
2024-02-02T01:21:57.594Z,41.63
2024-02-02T01:22:29.606Z,41.53
2024-02-02T01:23:02.294Z,41.61
2024-02-02T01:23:35.284Z,41.53
2024-02-02T01:24:14.493Z,41.63
2024-02-02T01:24:46.836Z,41.63
2024-02-02T01:25:18.849Z,41.63
2024-02-02T01:25:50.870Z,41.63
2024-02-02T01:26:23.464Z,41.63
2024-02-02T01:26:55.820Z,41.63
2024-02-02T01:27:27.842Z,41.53
2024-02-02T01:27:59.855Z,41.53
2024-02-02T01:28:31.864Z,41.61
2024-02-02T01:29:03.918Z,41.51
2024-02-02T01:29:35.896Z,41.53
2024-02-02T01:30:08.050Z,41.53
2024-02-02T01:30:40.997Z,41.61
2024-02-02T01:31:13.021Z,41.53
2024-02-02T01:31:45.033Z,41.63
2024-02-02T01:32:17.047Z,41.53
2024-02-02T01:32:50.617Z,41.63
2024-02-02T01:33:22.727Z,41.63
2024-02-02T01:34:14.270Z,41.63
2024-02-02T01:34:46.377Z,41.73
2024-02-02T01:35:18.458Z,41.63
2024-02-02T01:35:50.816Z,41.73
2024-02-02T01:36:22.893Z,41.73
2024-02-02T01:36:55.244Z,41.63
2024-02-02T01:37:27.584Z,41.63
2024-02-02T01:38:00.198Z,41.63
2024-02-02T01:38:32.536Z,41.53
2024-02-02T01:39:04.577Z,41.53
2024-02-02T01:39:36.612Z,41.63
2024-02-02T01:40:09.194Z,41.63
2024-02-02T01:40:41.802Z,41.53
2024-02-02T01:41:13.813Z,41.53
2024-02-02T01:41:46.409Z,41.53
2024-02-02T01:42:18.524Z,41.43
2024-02-02T01:42:57.258Z,41.63
2024-02-02T01:43:35.334Z,41.63
2024-02-02T01:44:07.671Z,41.53
2024-02-02T01:44:40.328Z,41.63
2024-02-02T01:45:13.066Z,41.63
2024-02-02T01:45:45.062Z,41.53
2024-02-02T01:46:17.089Z,41.53
2024-02-02T01:46:49.230Z,41.53
2024-02-02T01:47:27.392Z,41.53
2024-02-02T01:48:00.773Z,41.61
2024-02-02T01:48:33.152Z,41.53
2024-02-02T01:49:05.739Z,41.43
2024-02-02T01:49:38.196Z,41.53
2024-02-02T01:50:10.232Z,41.51
2024-02-02T01:50:42.262Z,41.51
2024-02-02T01:51:14.304Z,41.51
2024-02-02T01:51:46.888Z,41.51
2024-02-02T01:52:18.939Z,41.51
2024-02-02T01:52:50.930Z,41.51
2024-02-02T01:53:23.807Z,41.51
2024-02-02T01:53:55.834Z,41.51
2024-02-02T01:54:27.909Z,41.53
2024-02-02T01:55:00.623Z,41.53
2024-02-02T01:55:32.606Z,41.63
2024-02-02T01:56:29.275Z,41.53
2024-02-02T01:57:01.343Z,41.51
2024-02-02T01:57:34.030Z,41.41
2024-02-02T01:58:24.674Z,41.43
2024-02-02T01:58:57.368Z,41.61
2024-02-02T01:59:29.385Z,41.51
2024-02-02T02:00:01.616Z,41.63
2024-02-02T02:00:34.646Z,41.63
2024-02-02T02:01:06.834Z,41.63
2024-02-02T02:01:57.437Z,41.61
2024-02-02T02:02:35.529Z,41.63
2024-02-02T02:03:07.606Z,41.63
2024-02-02T02:04:00.348Z,41.63
2024-02-02T02:04:38.457Z,41.73
2024-02-02T02:05:16.515Z,41.73
2024-02-02T02:06:13.268Z,41.63
2024-02-02T02:06:51.394Z,41.63
2024-02-02T02:07:29.412Z,41.63
2024-02-02T02:08:07.476Z,41.53
2024-02-02T02:09:35.734Z,41.53
2024-02-02T02:10:07.721Z,41.63
2024-02-02T02:10:39.723Z,41.51
2024-02-02T02:11:11.749Z,41.51
2024-02-02T02:11:49.845Z,41.63
2024-02-02T02:12:55.659Z,41.41
2024-02-02T02:13:33.723Z,41.41
2024-02-02T02:14:11.778Z,41.43
2024-02-02T02:14:49.840Z,41.53
2024-02-02T02:15:21.919Z,41.51
2024-02-02T02:15:53.925Z,41.51
2024-02-02T02:16:25.930Z,41.51
2024-02-02T02:16:58.265Z,41.51
2024-02-02T02:17:36.315Z,41.53
2024-02-02T02:18:08.399Z,41.53
2024-02-02T02:18:53.012Z,41.53
2024-02-02T02:19:23.480Z,41.53
2024-02-02T02:20:20.296Z,41.41
2024-02-02T02:21:18.953Z,41.51
2024-02-02T02:21:50.940Z,41.53
2024-02-02T02:22:22.963Z,41.41
2024-02-02T02:23:01.518Z,41.53
2024-02-02T02:23:33.535Z,41.51
2024-02-02T02:24:05.904Z,41.53
2024-02-02T02:24:37.983Z,41.63
2024-02-02T02:25:09.980Z,41.63
2024-02-02T02:25:41.997Z,41.63
2024-02-02T02:26:14.129Z,41.63
2024-02-02T02:26:46.193Z,41.63
2024-02-02T02:27:18.232Z,41.63
2024-02-02T02:28:08.841Z,41.53
2024-02-02T02:28:59.812Z,41.63
2024-02-02T02:29:32.172Z,41.63
2024-02-02T02:30:04.513Z,41.63
2024-02-02T02:30:36.607Z,41.63
2024-02-02T02:31:14.707Z,41.63
2024-02-02T02:31:52.848Z,41.63
2024-02-02T02:32:31.047Z,41.63
2024-02-02T02:33:40.424Z,41.73
2024-02-02T02:34:18.656Z,41.73
2024-02-02T02:34:51.420Z,41.73
2024-02-02T02:35:42.026Z,41.51
2024-02-02T02:36:14.132Z,41.51
2024-02-02T02:36:46.108Z,41.51
2024-02-02T02:37:37.070Z,41.43
2024-02-02T02:38:09.123Z,41.53
2024-02-02T02:38:41.169Z,41.53
2024-02-02T02:39:13.221Z,41.63
2024-02-02T02:39:45.533Z,41.63
2024-02-02T02:40:17.553Z,41.51
2024-02-02T02:41:08.502Z,41.53
2024-02-02T02:41:40.869Z,41.53
2024-02-02T02:42:50.438Z,41.63
2024-02-02T02:43:28.503Z,41.63
2024-02-02T02:44:00.508Z,41.63
2024-02-02T02:44:38.579Z,41.63
2024-02-02T02:45:29.561Z,41.63
2024-02-02T02:46:01.536Z,41.53
2024-02-02T02:46:33.933Z,41.63
2024-02-02T02:47:11.985Z,41.53
2024-02-02T02:47:50.188Z,41.63
2024-02-02T02:48:22.293Z,41.63
2024-02-02T02:49:00.452Z,41.63
2024-02-02T02:49:32.760Z,41.63
2024-02-02T02:50:04.847Z,41.63
2024-02-02T02:50:42.920Z,41.53
2024-02-02T02:51:14.967Z,41.63
2024-02-02T02:51:46.977Z,41.63
2024-02-02T02:52:19.036Z,41.53
2024-02-02T02:52:51.008Z,41.53
2024-02-02T02:53:23.023Z,41.53
2024-02-02T02:53:55.100Z,41.53
2024-02-02T02:54:33.697Z,41.53
2024-02-02T02:55:05.731Z,41.53
2024-02-02T02:56:52.431Z,41.51
2024-02-02T02:57:24.662Z,41.51
2024-02-02T02:57:56.632Z,41.51
2024-02-02T02:58:28.665Z,41.51
2024-02-02T02:59:19.599Z,41.51
2024-02-02T03:00:10.224Z,41.51
2024-02-02T03:00:48.312Z,41.53
2024-02-02T03:01:26.887Z,41.51
2024-02-02T03:02:05.547Z,41.51
2024-02-02T03:02:37.781Z,41.41
2024-02-02T03:03:28.736Z,41.51
2024-02-02T03:04:00.788Z,41.53
2024-02-02T03:04:32.944Z,41.53
2024-02-02T03:05:05.006Z,41.41
2024-02-02T03:05:37.023Z,41.41
2024-02-02T03:06:09.125Z,41.51
2024-02-02T03:06:41.195Z,41.51
2024-02-02T03:07:51.643Z,41.51
2024-02-02T03:08:24.502Z,41.63
2024-02-02T03:09:39.795Z,41.53
2024-02-02T03:10:11.840Z,41.53
2024-02-02T03:10:43.856Z,41.63
2024-02-02T03:11:40.536Z,41.63
2024-02-02T03:12:12.587Z,41.51
2024-02-02T03:13:22.118Z,41.51
2024-02-02T03:13:54.115Z,41.41
2024-02-02T03:14:32.171Z,41.41
2024-02-02T03:15:10.277Z,41.41
2024-02-02T03:16:00.869Z,41.41
2024-02-02T03:17:10.437Z,41.51
2024-02-02T03:17:42.476Z,41.43
2024-02-02T03:18:14.501Z,41.53
2024-02-02T03:19:05.173Z,41.63
2024-02-02T03:19:37.550Z,41.53
2024-02-02T03:20:15.697Z,41.63
2024-02-02T03:21:12.410Z,41.63
2024-02-02T03:21:44.387Z,41.63
2024-02-02T03:22:22.448Z,41.63
2024-02-02T03:22:54.454Z,41.63
2024-02-02T03:23:32.498Z,41.63
2024-02-02T03:24:04.539Z,41.53
2024-02-02T03:25:13.762Z,41.63
2024-02-02T03:25:45.777Z,41.63
2024-02-02T03:26:17.790Z,41.63
2024-02-02T03:26:49.819Z,41.53
2024-02-02T03:27:27.952Z,41.63
2024-02-02T03:28:06.477Z,41.63
2024-02-02T03:28:38.487Z,41.53
2024-02-02T03:29:29.120Z,41.63
2024-02-02T03:30:01.188Z,41.53
2024-02-02T03:30:33.435Z,41.53
2024-02-02T03:31:11.489Z,41.63
2024-02-02T03:31:43.508Z,41.63
2024-02-02T03:32:21.562Z,41.53
2024-02-02T03:32:59.876Z,41.63
2024-02-02T03:33:32.084Z,41.53
2024-02-02T03:34:04.235Z,41.63
2024-02-02T03:35:13.501Z,41.63
2024-02-02T03:36:22.785Z,41.63
2024-02-02T03:36:54.808Z,41.53
2024-02-02T03:37:26.820Z,41.53
2024-02-02T03:38:04.882Z,41.43
2024-02-02T03:38:43.438Z,41.43
2024-02-02T03:39:15.567Z,41.41
2024-02-02T03:39:47.596Z,41.43
2024-02-02T03:40:19.586Z,41.41
2024-02-02T03:40:58.146Z,41.51
2024-02-02T03:41:36.203Z,41.43
2024-02-02T03:42:08.237Z,41.53
2024-02-02T03:42:40.230Z,41.53
2024-02-02T03:43:12.254Z,41.63
2024-02-02T03:44:03.260Z,41.53
2024-02-02T03:44:41.420Z,41.53
2024-02-02T03:45:13.480Z,41.63
2024-02-02T03:45:45.473Z,41.73
2024-02-02T03:46:17.805Z,41.63
2024-02-02T03:46:49.827Z,41.53
2024-02-02T03:47:22.001Z,41.53
2024-02-02T03:47:54.116Z,41.53
2024-02-02T03:48:26.250Z,41.63
2024-02-02T03:48:58.636Z,41.63
2024-02-02T03:49:30.692Z,41.63
2024-02-02T03:50:08.789Z,41.63
2024-02-02T03:50:40.810Z,41.53
2024-02-02T03:51:12.833Z,41.63
2024-02-02T03:51:44.831Z,41.63
2024-02-02T03:52:16.872Z,41.63
2024-02-02T03:52:48.869Z,41.53
2024-02-02T03:53:46.034Z,41.53
2024-02-02T03:54:24.850Z,41.53
2024-02-02T03:54:57.776Z,41.53
2024-02-02T03:55:29.790Z,41.63
2024-02-02T03:56:07.839Z,41.53
2024-02-02T03:56:39.851Z,41.53
2024-02-02T03:57:11.928Z,41.53
2024-02-02T03:57:43.892Z,41.53
2024-02-02T03:58:22.375Z,41.63
2024-02-02T03:59:13.008Z,41.53
2024-02-02T03:59:45.014Z,41.53
2024-02-02T04:00:17.097Z,41.53
2024-02-02T04:01:08.281Z,41.53
2024-02-02T04:01:46.801Z,41.53
2024-02-02T04:02:24.868Z,41.43
2024-02-02T04:03:03.023Z,41.53
2024-02-02T04:03:35.520Z,41.53
2024-02-02T04:04:13.729Z,41.53
2024-02-02T04:04:45.836Z,41.43
2024-02-02T04:05:18.466Z,41.43
2024-02-02T04:05:56.580Z,41.53
2024-02-02T04:08:49.827Z,41.43
2024-02-02T04:09:40.806Z,41.43
2024-02-02T04:10:37.971Z,41.43
2024-02-02T04:11:16.044Z,41.43
2024-02-02T04:12:16.666Z,41.43
2024-02-02T04:13:13.775Z,41.53
2024-02-02T04:14:06.894Z,41.43
2024-02-02T04:15:02.432Z,41.53
2024-02-02T04:18:03.726Z,41.53
2024-02-02T04:18:42.582Z,41.43
2024-02-02T04:19:21.267Z,41.43
2024-02-02T04:20:06.816Z,41.31
2024-02-02T04:21:14.478Z,41.41
2024-02-02T04:21:53.041Z,41.41
2024-02-02T04:23:08.538Z,41.53
2024-02-02T04:23:40.545Z,41.53
2024-02-02T04:24:58.108Z,41.43
2024-02-02T04:25:39.162Z,41.53
2024-02-02T04:26:17.243Z,41.53
2024-02-02T04:26:56.798Z,41.53
2024-02-02T04:27:35.384Z,41.53
2024-02-02T04:28:13.480Z,41.53
2024-02-02T04:29:11.495Z,41.31
2024-02-02T04:30:29.296Z,41.53
2024-02-02T04:32:22.483Z,41.43
2024-02-02T04:33:26.812Z,41.43
2024-02-02T04:34:06.494Z,41.43
2024-02-02T04:34:38.741Z,41.43
2024-02-02T04:35:16.865Z,41.43
2024-02-02T04:36:30.981Z,41.53
2024-02-02T04:37:22.333Z,41.53
2024-02-02T04:38:00.401Z,41.53
2024-02-02T04:38:32.434Z,41.53
2024-02-02T06:09:24.457Z,41.21
2024-02-02T06:10:43.236Z,41.31
2024-02-02T06:11:21.780Z,41.33
2024-02-02T06:12:05.869Z,41.43
2024-02-02T06:12:21.119Z,41.43
2024-02-02T06:14:59.473Z,41.33
2024-02-02T06:15:57.432Z,41.33
2024-02-02T06:16:29.447Z,41.43
2024-02-02T06:17:02.122Z,41.33
2024-02-02T06:18:57.078Z,41.33
2024-02-02T06:20:02.918Z,41.23
2024-02-02T06:20:43.983Z,41.43
2024-02-02T06:21:23.617Z,41.33
2024-02-02T06:22:01.649Z,41.33
2024-02-02T06:22:54.878Z,41.53
2024-02-02T06:24:12.990Z,41.53
2024-02-02T06:24:54.047Z,41.53
2024-02-02T06:28:38.234Z,41.33
2024-02-02T06:29:30.859Z,41.33
2024-02-02T06:31:06.886Z,41.43
2024-02-02T06:31:39.209Z,41.53
2024-02-02T06:32:17.265Z,41.43
2024-02-02T06:32:58.403Z,41.43
2024-02-02T06:33:37.093Z,41.33
2024-02-02T06:34:20.190Z,41.33
2024-02-02T06:34:58.844Z,41.43
2024-02-02T06:35:36.842Z,41.43
2024-02-02T06:37:37.814Z,41.33
2024-02-02T06:39:35.118Z,41.31
2024-02-02T06:40:07.421Z,41.23
2024-02-02T06:40:39.438Z,41.33
2024-02-02T06:41:11.484Z,41.23
2024-02-02T06:41:49.536Z,41.23
2024-02-02T06:42:21.569Z,41.23
2024-02-02T06:42:54.946Z,41.23
2024-02-02T06:43:26.946Z,41.21
2024-02-02T06:43:58.959Z,41.21
2024-02-02T06:44:30.975Z,41.21
2024-02-02T06:45:09.070Z,41.23
2024-02-02T06:45:41.144Z,41.33
2024-02-02T06:46:19.223Z,41.43
2024-02-02T06:46:57.271Z,41.43
2024-02-02T06:47:29.627Z,41.43
2024-02-02T06:48:08.238Z,41.43
2024-02-02T06:48:40.307Z,41.43
2024-02-02T06:49:43.013Z,41.33
2024-02-02T06:50:15.124Z,41.33
2024-02-02T06:50:53.168Z,41.33
2024-02-02T06:51:50.381Z,41.33
2024-02-02T06:52:22.351Z,41.33
2024-02-02T06:53:00.467Z,41.43
2024-02-02T06:53:38.576Z,41.23
2024-02-02T06:54:35.726Z,41.33
2024-02-02T06:55:08.331Z,41.33
2024-02-02T06:55:40.409Z,41.43
2024-02-02T06:56:31.035Z,41.43
2024-02-02T06:57:09.084Z,41.43
2024-02-02T06:57:49.244Z,41.43
2024-02-02T06:58:46.811Z,41.43
2024-02-02T06:59:18.769Z,41.43
2024-02-02T06:59:50.779Z,41.33
2024-02-02T07:00:28.907Z,41.33
2024-02-02T07:01:25.621Z,41.33
2024-02-02T07:01:57.905Z,41.33
2024-02-02T07:02:29.924Z,41.33
2024-02-02T07:03:01.965Z,41.21
2024-02-02T07:03:40.060Z,41.33
2024-02-02T07:04:18.313Z,41.33
2024-02-02T07:04:50.323Z,41.33
2024-02-02T07:05:22.178Z,41.33
2024-02-02T07:06:19.002Z,41.33
2024-02-02T07:06:51.019Z,41.33
2024-02-02T07:07:28.934Z,41.33
2024-02-02T07:08:00.955Z,41.23
2024-02-02T07:08:32.940Z,41.23
2024-02-02T07:09:05.147Z,41.33
2024-02-02T07:09:37.085Z,41.23
2024-02-02T07:10:08.981Z,41.33
2024-02-02T07:10:41.203Z,41.23
2024-02-02T07:11:13.076Z,41.31
2024-02-02T07:12:03.614Z,41.13
2024-02-02T07:12:35.653Z,41.33
2024-02-02T07:13:14.242Z,41.33
2024-02-02T07:13:46.224Z,41.43
2024-02-02T07:14:18.601Z,41.43
2024-02-02T07:14:50.698Z,41.13
2024-02-02T07:15:22.713Z,41.13
2024-02-02T07:15:54.563Z,41.21
2024-02-02T07:16:26.564Z,41.11
2024-02-02T07:16:58.426Z,41.23
2024-02-02T07:17:57.196Z,41.23
2024-02-02T07:18:29.323Z,41.13
2024-02-02T07:19:01.746Z,41.13
2024-02-02T07:19:33.821Z,41.23
2024-02-02T07:20:05.783Z,41.11
2024-02-02T07:20:37.654Z,41.23
2024-02-02T07:21:09.640Z,41.23
2024-02-02T07:21:41.480Z,41.23
2024-02-02T07:22:32.920Z,41.13
2024-02-02T07:23:04.754Z,41.23
2024-02-02T07:23:42.955Z,41.23
2024-02-02T07:24:20.876Z,41.23
2024-02-02T07:24:52.775Z,41.23
2024-02-02T07:25:24.639Z,41.23
2024-02-02T07:26:02.565Z,41.33
2024-02-02T07:27:05.211Z,41.23
2024-02-02T07:27:43.162Z,41.33
2024-02-02T07:28:39.734Z,41.23
2024-02-02T07:29:11.582Z,41.23
2024-02-02T07:29:43.464Z,41.23
2024-02-02T07:30:15.390Z,41.23
2024-02-02T07:31:05.830Z,41.33
2024-02-02T07:31:38.000Z,41.23
2024-02-02T07:32:46.698Z,41.33
2024-02-02T07:33:18.812Z,41.23
2024-02-02T07:33:51.188Z,41.23
2024-02-02T07:34:30.789Z,41.13
2024-02-02T07:35:03.139Z,41.23
2024-02-02T07:35:41.959Z,41.33
2024-02-02T07:36:13.825Z,41.23
2024-02-02T07:36:45.675Z,41.23
2024-02-02T07:37:24.522Z,41.13
2024-02-02T07:39:11.015Z,41.23
2024-02-02T08:10:05.927Z,41.13
2024-02-02T08:11:58.489Z,41.23
2024-02-02T08:13:39.155Z,41.13
2024-02-02T08:15:14.882Z,41.11
2024-02-02T08:15:52.800Z,41.01
2024-02-02T08:16:30.740Z,41.23
2024-02-02T08:18:18.342Z,41.11
2024-02-02T08:20:04.909Z,41.13
2024-02-02T08:20:36.760Z,41.01
2024-02-02T08:22:23.243Z,41.01
2024-02-02T08:22:55.426Z,41.11
2024-02-02T08:23:27.334Z,40.91
2024-02-02T08:25:13.802Z,40.81
2024-02-02T08:27:21.723Z,41.01
2024-02-02T08:29:08.156Z,41.03
2024-02-02T08:30:53.786Z,41.11
2024-02-02T08:32:59.468Z,40.91
2024-02-02T08:33:37.449Z,40.81
2024-02-02T08:34:15.485Z,41.01
2024-02-02T08:36:01.990Z,41.03
2024-02-02T08:36:34.514Z,41.03
2024-02-02T08:37:12.426Z,41.03
2024-02-02T08:37:50.370Z,41.03
2024-02-02T08:39:36.955Z,40.92
2024-02-02T08:42:59.157Z,40.91
2024-02-02T08:43:31.016Z,41.01
2024-02-02T08:45:17.628Z,41.23
2024-02-02T08:47:09.063Z,41.03
2024-02-02T08:49:35.618Z,41.13
2024-02-02T08:51:22.151Z,41.03
2024-02-02T08:52:00.066Z,41.13
2024-02-02T08:52:38.023Z,41.03
2024-02-02T08:53:16.506Z,41.01
2024-02-02T08:53:54.447Z,41.13
2024-02-02T08:55:45.119Z,41.13
2024-02-02T08:57:31.575Z,41.01
2024-02-02T08:58:03.433Z,40.91
2024-02-02T08:58:41.385Z,40.91
2024-02-02T09:00:27.885Z,41.13
2024-02-02T09:02:15.321Z,41.03
2024-02-02T09:04:03.017Z,41.01
2024-02-02T09:06:00.259Z,40.91
2024-02-02T09:06:38.348Z,40.91
2024-02-02T09:09:19.720Z,40.91
2024-02-02T09:09:58.322Z,40.81
2024-02-02T09:12:12.540Z,40.91
2024-02-02T09:14:00.038Z,40.92
2024-02-02T09:14:37.986Z,41.01
2024-02-02T09:16:43.033Z,41.01
2024-02-02T09:18:39.627Z,41.01
2024-02-02T09:19:30.068Z,40.91
2024-02-02T09:20:02.024Z,41.01
2024-02-02T09:20:34.196Z,40.91
2024-02-02T09:22:20.676Z,40.91
2024-02-02T09:24:42.870Z,41.03
2024-02-02T09:25:21.308Z,41.01
2024-02-02T09:27:17.038Z,40.91
2024-02-02T09:27:49.256Z,40.91
2024-02-02T09:28:21.105Z,41.01
2024-02-02T09:28:54.278Z,41.01
2024-02-02T09:30:45.852Z,40.91
2024-02-02T09:32:26.481Z,41.01
2024-02-02T09:34:40.231Z,40.91
2024-02-02T09:35:18.296Z,40.81
2024-02-02T09:37:04.763Z,40.81
2024-02-02T09:37:36.651Z,40.81
2024-02-02T09:38:49.556Z,40.81
2024-02-02T09:39:21.768Z,40.81
2024-02-02T09:40:26.458Z,40.91
2024-02-02T09:41:23.476Z,40.91
2024-02-02T09:42:01.421Z,40.91
2024-02-02T09:42:51.856Z,40.91
2024-02-02T09:43:23.696Z,40.91
2024-02-02T09:44:01.640Z,40.81
2024-02-02T09:44:33.650Z,40.91
2024-02-02T09:45:11.618Z,40.81
2024-02-02T09:45:50.045Z,40.81
2024-02-02T09:46:27.996Z,40.81
2024-02-02T09:47:05.945Z,40.81
2024-02-02T09:47:38.203Z,40.91
2024-02-02T09:48:10.119Z,40.81
2024-02-02T09:48:42.186Z,40.91
2024-02-02T09:49:20.288Z,40.81
2024-02-02T09:49:52.585Z,40.81
2024-02-02T09:50:24.705Z,40.81
2024-02-02T09:51:02.758Z,40.81
2024-02-02T09:51:40.755Z,40.81
2024-02-02T09:52:12.570Z,40.81
2024-02-02T09:52:51.014Z,40.81
2024-02-02T09:53:29.617Z,40.81
2024-02-02T09:55:41.622Z,40.81
2024-02-02T09:56:19.555Z,40.70
2024-02-02T09:57:10.630Z,40.70
2024-02-02T09:57:42.849Z,40.81
2024-02-02T09:58:15.763Z,40.81
2024-02-02T09:58:48.214Z,40.81
2024-02-02T09:59:20.070Z,40.81
2024-02-02T09:59:51.995Z,40.81
2024-02-02T10:00:23.880Z,40.70
2024-02-02T10:01:39.268Z,40.91
2024-02-02T10:02:11.424Z,40.91
2024-02-02T10:03:02.229Z,40.91
2024-02-02T10:03:40.409Z,40.81
2024-02-02T10:04:18.396Z,40.91
2024-02-02T10:04:50.235Z,40.91
2024-02-02T10:05:28.161Z,40.81
2024-02-02T10:06:24.755Z,40.81
2024-02-02T10:07:02.710Z,40.91
2024-02-02T10:07:35.171Z,40.91
2024-02-02T10:08:25.601Z,40.91
2024-02-02T10:09:03.592Z,40.91
2024-02-02T10:09:42.379Z,40.91
2024-02-02T10:10:20.321Z,40.81
2024-02-02T10:11:10.739Z,40.81
2024-02-02T10:11:42.598Z,40.81
2024-02-02T10:12:14.491Z,40.91
2024-02-02T10:12:46.331Z,40.70
2024-02-02T10:13:18.787Z,40.70
2024-02-02T10:14:09.513Z,40.70
2024-02-02T10:15:02.722Z,40.91
2024-02-02T10:15:55.144Z,40.81
2024-02-02T10:16:33.060Z,40.81
2024-02-02T10:17:29.627Z,40.81
2024-02-02T10:18:07.668Z,40.70
2024-02-02T10:18:39.679Z,40.81
2024-02-02T10:19:11.772Z,40.81
2024-02-02T10:19:43.688Z,40.70
2024-02-02T10:20:15.506Z,40.70
2024-02-02T10:21:12.037Z,40.81
2024-02-02T10:21:43.891Z,40.81
2024-02-02T10:22:15.751Z,40.81
2024-02-02T10:22:48.269Z,40.81
2024-02-02T10:23:20.148Z,40.81
2024-02-02T10:24:05.753Z,40.81
2024-02-02T10:24:41.455Z,40.61
2024-02-02T10:25:19.355Z,40.81
2024-02-02T10:25:51.535Z,40.81
2024-02-02T10:26:23.410Z,40.70
2024-02-02T10:26:55.289Z,40.81
2024-02-02T10:27:27.363Z,40.81
2024-02-02T10:28:05.790Z,40.91
2024-02-02T10:28:43.728Z,40.91
2024-02-02T10:29:34.465Z,40.81
2024-02-02T10:30:12.497Z,40.91
2024-02-02T10:30:50.401Z,40.91
2024-02-02T10:31:46.978Z,40.91
2024-02-02T10:32:30.968Z,40.81
2024-02-02T10:32:52.255Z,40.81
2024-02-02T10:33:48.816Z,40.81
2024-02-02T10:34:21.181Z,40.81
2024-02-02T10:34:53.184Z,40.91
2024-02-02T10:35:31.120Z,40.81
2024-02-02T10:36:02.972Z,40.91
2024-02-02T10:36:35.206Z,40.91
2024-02-02T10:37:13.108Z,40.81
2024-02-02T10:37:44.978Z,40.81
2024-02-02T10:38:23.441Z,40.81
2024-02-02T10:39:01.459Z,40.81
2024-02-02T10:39:39.447Z,40.81
2024-02-02T10:40:17.368Z,40.81
2024-02-02T10:40:49.510Z,40.81
2024-02-02T10:41:27.448Z,40.70
2024-02-02T10:41:59.336Z,40.81
2024-02-02T10:42:50.108Z,40.70
2024-02-02T10:43:40.676Z,40.70
2024-02-02T10:44:18.617Z,40.70
2024-02-02T10:44:50.483Z,40.70
2024-02-02T10:45:28.488Z,40.70
2024-02-02T10:46:00.311Z,40.70
2024-02-02T10:46:38.304Z,40.70
2024-02-02T10:47:10.161Z,40.70
2024-02-02T10:47:42.032Z,40.70
2024-02-02T10:48:45.889Z,40.70
2024-02-02T10:49:18.147Z,40.81
2024-02-02T10:49:50.150Z,40.81
2024-02-02T10:50:28.170Z,40.81
2024-02-02T10:51:06.220Z,40.81
2024-02-02T10:51:44.135Z,40.81
2024-02-02T10:52:22.658Z,40.81
2024-02-02T10:52:54.517Z,40.70
2024-02-02T10:53:26.386Z,40.70
2024-02-02T10:53:58.546Z,40.61
2024-02-02T10:54:30.745Z,40.59
2024-02-02T10:55:02.612Z,40.59
2024-02-02T10:55:40.546Z,40.48
2024-02-02T10:56:18.509Z,40.59
2024-02-02T10:57:15.070Z,40.48
2024-02-02T10:58:11.619Z,40.59
2024-02-02T10:58:49.853Z,40.48
2024-02-02T10:59:21.710Z,40.59
2024-02-02T10:59:53.557Z,40.59
2024-02-02T11:00:25.982Z,40.59
2024-02-02T11:00:57.894Z,40.61
2024-02-02T11:02:32.690Z,40.70
2024-02-02T11:03:10.670Z,40.70
2024-02-02T11:03:48.772Z,40.70
2024-02-02T11:04:20.700Z,40.81
2024-02-02T11:05:35.847Z,40.81
2024-02-02T11:06:07.832Z,40.81
2024-02-02T11:06:45.902Z,40.81
2024-02-02T11:07:42.434Z,40.81
2024-02-02T11:08:32.881Z,40.70
2024-02-02T11:09:04.827Z,40.81
2024-02-02T11:09:36.725Z,40.81
2024-02-02T11:10:08.625Z,40.70
2024-02-02T11:10:59.083Z,40.81
2024-02-02T11:11:30.922Z,40.70
2024-02-02T11:12:02.790Z,40.81
2024-02-02T11:12:41.439Z,40.70
2024-02-02T11:13:13.640Z,40.70
2024-02-02T11:14:42.740Z,40.81
2024-02-02T11:15:14.630Z,40.70
2024-02-02T11:16:23.616Z,40.70
2024-02-02T11:17:01.591Z,40.69
2024-02-02T11:17:52.233Z,40.69
2024-02-02T11:18:24.143Z,40.70
2024-02-02T11:19:33.228Z,40.70
2024-02-02T11:20:05.128Z,40.70
2024-02-02T11:20:43.068Z,40.70
2024-02-02T11:21:21.051Z,40.70
2024-02-02T11:21:59.002Z,40.70
2024-02-02T11:22:30.886Z,40.70
2024-02-02T11:23:03.046Z,40.70
2024-02-02T11:23:40.981Z,40.70
2024-02-02T11:24:18.981Z,40.70
2024-02-02T11:24:56.955Z,40.81
2024-02-02T11:25:28.829Z,40.81
2024-02-02T11:26:06.793Z,40.69
2024-02-02T11:26:44.755Z,40.59